Detall de PIREP

Printer-friendly versionPDF version

[2012/06/21 17:36:00]
Flight IATA:CT0001
Pilot Number:044
Company ICAO:CAT
Aircraft Type:BE58/A
PAX:2
Departing Airport: LEVC
Destination Airport: LEMH
Alternate Airport:LEPA
Online: VATSIM
Route:NINOT G30 IZA B46 MJV DCT PTC
Flight Level:FL140
No Slew and time accel
No pause
Crash detect
Detect pilot in Cockpit between each 30 and 45 minutes
17:36 Zero fuel Weight: 4592 Lbs, Fuel Weight: 844 Lbs
17:36 VATSIM:LEVC 221730Z 09010KT 060V130 9999 FEW035 25/17 Q1020 NOSIG
17:36 VATSIM:LEMH 221730Z 03014KT CAVOK 24/14 Q1019
17:37 VOICE CATALONIAN
17:40 Parking Brakes off
17:48 Take-off
17:48 Take off Weight: 5431 Lbs
17:48 Wind: 092º @ 010 Knots Heading: 112º
17:48 POS N39º 29´ 31´´ W000º 29´ 21´´
17:48 Gear Up: 123 Knots
18:03 Wind:080º@025 Knots Heading: 104º Ground Speed: 150 Knots Altitude 12739 ft
18:04 TOC
18:04 Fuel Weight: 783 Lb
18:18 Wind:070º@027 Knots Heading: 118º Ground Speed: 194 Knots Altitude 14160 ft
18:33 Wind:067º@028 Knots Heading: 063º Ground Speed: 183 Knots Altitude 14169 ft
18:48 Wind:059º@024 Knots Heading: 091º Ground Speed: 192 Knots Altitude 14192 ft
18:54 TOD
18:54 Fuel Weight: 608 Lb
19:03 Wind:023º@025 Knots Heading: 051º Ground Speed: 152 Knots Altitude 7664 ft
19:17 Flaps:1 at 112 Knots
19:17 Flaps:2 at 106 Knots
19:18 Wind:021º@012 Knots Heading: 010º Ground Speed: 082 Knots Altitude 1617 ft
19:18 Gear Down: 104 Knots
19:21 TouchDown:Rate -86 ft/min Speed: 72 Knots
19:21 VATSIM:LEMH 221900Z 02012KT CAVOK 22/15 Q1019
19:21 Land
19:21 Wind:021º@012 Knots
19:21 Heading: 009º
19:21 Flight Duration: 01:33
19:21 Landing Weight: 5158 Lbs
19:21 POS N39º 51´ 45´´ E004º 13´ 07´´
19:25 Parking brakes on
19:25 Block to Block Duration: 01:45
19:25 Final Fuel: 566 Lbls
19:25 Spent Fuel: 277 Lbls
19:25 Flight Length: 255 NM
19:25 TOD Land Length: 62 NM

Exportar CSV

Powered by Drupal - Modified by Danger4k